sensor_id;sensor_type;location;lat;lon;timestamp;pressure;altitude;pressure_sealevel;temperature;humidity
61898;BME280;47850;50.274;18.908;2023-06-19T00:00:41;98029.11;;;16.21;70.79
61898;BME280;47850;50.274;18.908;2023-06-19T00:03:37;98032.27;;;16.21;71.29
61898;BME280;47850;50.274;18.908;2023-06-19T00:06:05;98033.35;;;16.17;71.05
61898;BME280;47850;50.274;18.908;2023-06-19T00:08:34;98035.05;;;16.08;71.26
61898;BME280;47850;50.274;18.908;2023-06-19T00:11:03;98032.99;;;16.00;72.14
61898;BME280;47850;50.274;18.908;2023-06-19T00:13:31;98031.39;;;15.95;72.64
61898;BME280;47850;50.274;18.908;2023-06-19T00:16:01;98034.21;;;15.92;72.50
61898;BME280;47850;50.274;18.908;2023-06-19T00:18:30;98030.91;;;15.85;72.72
61898;BME280;47850;50.274;18.908;2023-06-19T00:20:58;98037.55;;;15.73;72.95
61898;BME280;47850;50.274;18.908;2023-06-19T00:23:26;98036.16;;;15.65;73.53
61898;BME280;47850;50.274;18.908;2023-06-19T00:25:54;98032.10;;;15.59;73.76
61898;BME280;47850;50.274;18.908;2023-06-19T00:28:21;98033.77;;;15.56;74.32
61898;BME280;47850;50.274;18.908;2023-06-19T00:30:49;98032.06;;;15.48;74.40
61898;BME280;47850;50.274;18.908;2023-06-19T00:33:19;98035.45;;;15.41;74.66
61898;BME280;47850;50.274;18.908;2023-06-19T00:35:47;98036.73;;;15.33;75.17
61898;BME280;47850;50.274;18.908;2023-06-19T00:38:16;98037.66;;;15.29;75.57
61898;BME280;47850;50.274;18.908;2023-06-19T00:40:44;98038.27;;;15.28;75.96
61898;BME280;47850;50.274;18.908;2023-06-19T00:43:11;98036.25;;;15.26;75.76
61898;BME280;47850;50.274;18.908;2023-06-19T00:45:39;98036.54;;;15.22;75.76
61898;BME280;47850;50.274;18.908;2023-06-19T00:48:07;98035.05;;;15.22;76.38
61898;BME280;47850;50.274;18.908;2023-06-19T00:50:35;98034.95;;;15.21;76.23
61898;BME280;47850;50.274;18.908;2023-06-19T00:53:05;98031.09;;;15.18;76.35
61898;BME280;47850;50.274;18.908;2023-06-19T00:55:35;98027.16;;;15.11;76.44
61898;BME280;47850;50.274;18.908;2023-06-19T00:58:04;98026.48;;;15.06;76.40
61898;BME280;47850;50.274;18.908;2023-06-19T01:00:32;98025.27;;;15.01;76.71
61898;BME280;47850;50.274;18.908;2023-06-19T01:03:00;98024.41;;;14.96;76.96
61898;BME280;47850;50.274;18.908;2023-06-19T01:05:28;98023.86;;;14.90;77.22
61898;BME280;47850;50.274;18.908;2023-06-19T01:11:09;98018.80;;;14.82;78.26
61898;BME280;47850;50.274;18.908;2023-06-19T01:14:09;98019.82;;;14.82;78.45
61898;BME280;47850;50.274;18.908;2023-06-19T01:16:41;98014.50;;;14.86;78.62
61898;BME280;47850;50.274;18.908;2023-06-19T01:19:10;98014.58;;;14.89;78.40
61898;BME280;47850;50.274;18.908;2023-06-19T01:21:43;98015.98;;;14.91;78.54
61898;BME280;47850;50.274;18.908;2023-06-19T01:24:11;98013.56;;;14.92;78.49
61898;BME280;47850;50.274;18.908;2023-06-19T01:26:40;98010.64;;;14.89;78.45
61898;BME280;47850;50.274;18.908;2023-06-19T01:29:09;98009.44;;;14.80;78.52
61898;BME280;47850;50.274;18.908;2023-06-19T01:31:43;98012.40;;;14.71;78.75
61898;BME280;47850;50.274;18.908;2023-06-19T01:34:14;98011.25;;;14.62;78.80
61898;BME280;47850;50.274;18.908;2023-06-19T01:36:45;98011.38;;;14.55;79.07
61898;BME280;47850;50.274;18.908;2023-06-19T01:39:15;98015.78;;;14.47;79.63
61898;BME280;47850;50.274;18.908;2023-06-19T01:41:45;98012.23;;;14.41;80.34
61898;BME280;47850;50.274;18.908;2023-06-19T01:44:14;98012.70;;;14.35;80.42
61898;BME280;47850;50.274;18.908;2023-06-19T01:46:43;98014.13;;;14.27;80.66
61898;BME280;47850;50.274;18.908;2023-06-19T01:49:14;98016.27;;;14.23;81.54
61898;BME280;47850;50.274;18.908;2023-06-19T01:51:42;98012.88;;;14.19;81.56
61898;BME280;47850;50.274;18.908;2023-06-19T01:54:09;98015.60;;;14.13;81.67
61898;BME280;47850;50.274;18.908;2023-06-19T01:56:38;98011.44;;;14.10;82.06
61898;BME280;47850;50.274;18.908;2023-06-19T01:59:06;98016.50;;;14.10;82.25
61898;BME280;47850;50.274;18.908;2023-06-19T02:01:33;98013.91;;;14.09;81.96
61898;BME280;47850;50.274;18.908;2023-06-19T02:04:01;98019.39;;;14.06;81.96
61898;BME280;47850;50.274;18.908;2023-06-19T02:06:30;98017.52;;;14.07;82.32
61898;BME280;47850;50.274;18.908;2023-06-19T02:08:58;98021.02;;;14.06;82.56
61898;BME280;47850;50.274;18.908;2023-06-19T02:11:25;98022.65;;;14.02;82.44
61898;BME280;47850;50.274;18.908;2023-06-19T02:13:53;98028.27;;;13.99;82.68
61898;BME280;47850;50.274;18.908;2023-06-19T02:16:21;98034.75;;;13.96;83.01
61898;BME280;47850;50.274;18.908;2023-06-19T02:18:49;98032.39;;;13.91;83.51
61898;BME280;47850;50.274;18.908;2023-06-19T02:21:16;98027.20;;;13.87;83.59
61898;BME280;47850;50.274;18.908;2023-06-19T02:23:44;98029.93;;;13.82;83.60
61898;BME280;47850;50.274;18.908;2023-06-19T02:26:12;98028.02;;;13.76;83.77
61898;BME280;47850;50.274;18.908;2023-06-19T02:28:40;98034.04;;;13.70;84.10
61898;BME280;47850;50.274;18.908;2023-06-19T02:31:07;98027.44;;;13.67;84.46
61898;BME280;47850;50.274;18.908;2023-06-19T02:33:35;98024.67;;;13.71;84.81
61898;BME280;47850;50.274;18.908;2023-06-19T02:36:03;98028.89;;;13.76;84.93
61898;BME280;47850;50.274;18.908;2023-06-19T02:38:32;98025.21;;;13.81;85.04
61898;BME280;47850;50.274;18.908;2023-06-19T02:40:59;98024.55;;;13.85;84.55
61898;BME280;47850;50.274;18.908;2023-06-19T02:43:30;98025.91;;;13.88;84.85
61898;BME280;47850;50.274;18.908;2023-06-19T02:45:57;98030.44;;;13.91;84.79
61898;BME280;47850;50.274;18.908;2023-06-19T02:48:25;98037.30;;;13.87;84.30
61898;BME280;47850;50.274;18.908;2023-06-19T02:50:53;98035.77;;;13.83;84.20
61898;BME280;47850;50.274;18.908;2023-06-19T02:53:21;98038.41;;;13.80;84.56
61898;BME280;47850;50.274;18.908;2023-06-19T02:55:49;98041.23;;;13.80;84.74
61898;BME280;47850;50.274;18.908;2023-06-19T02:58:16;98039.41;;;13.77;84.79
61898;BME280;47850;50.274;18.908;2023-06-19T03:00:46;98036.48;;;13.76;84.76
61898;BME280;47850;50.274;18.908;2023-06-19T03:03:14;98039.79;;;13.76;84.98
61898;BME280;47850;50.274;18.908;2023-06-19T03:05:41;98041.66;;;13.79;85.14
61898;BME280;47850;50.274;18.908;2023-06-19T03:08:09;98040.45;;;13.82;85.07
61898;BME280;47850;50.274;18.908;2023-06-19T03:10:38;98046.52;;;13.89;85.17
61898;BME280;47850;50.274;18.908;2023-06-19T03:13:05;98045.91;;;13.95;85.13
61898;BME280;47850;50.274;18.908;2023-06-19T03:15:33;98049.31;;;14.01;84.88
61898;BME280;47850;50.274;18.908;2023-06-19T03:18:01;98051.39;;;14.05;84.59
61898;BME280;47850;50.274;18.908;2023-06-19T03:20:32;98053.16;;;14.07;84.66
61898;BME280;47850;50.274;18.908;2023-06-19T03:23:00;98054.98;;;14.10;84.77
61898;BME280;47850;50.274;18.908;2023-06-19T03:25:28;98052.29;;;14.14;84.98
61898;BME280;47850;50.274;18.908;2023-06-19T03:28:02;98051.11;;;14.22;84.79
61898;BME280;47850;50.274;18.908;2023-06-19T03:30:30;98046.75;;;14.26;84.43
61898;BME280;47850;50.274;18.908;2023-06-19T03:32:58;98045.44;;;14.26;84.30
61898;BME280;47850;50.274;18.908;2023-06-19T03:35:26;98044.62;;;14.28;84.48
61898;BME280;47850;50.274;18.908;2023-06-19T03:37:53;98044.95;;;14.31;84.56
61898;BME280;47850;50.274;18.908;2023-06-19T03:40:21;98044.20;;;14.38;84.67
61898;BME280;47850;50.274;18.908;2023-06-19T03:42:50;98045.98;;;14.45;84.63
61898;BME280;47850;50.274;18.908;2023-06-19T03:45:17;98048.66;;;14.51;84.30
61898;BME280;47850;50.274;18.908;2023-06-19T03:47:45;98054.52;;;14.59;84.31
61898;BME280;47850;50.274;18.908;2023-06-19T03:50:13;98051.65;;;14.65;84.26
61898;BME280;47850;50.274;18.908;2023-06-19T03:52:41;98051.70;;;14.72;84.51
61898;BME280;47850;50.274;18.908;2023-06-19T03:55:09;98047.52;;;14.80;84.18
61898;BME280;47850;50.274;18.908;2023-06-19T03:57:37;98048.52;;;14.91;83.93
61898;BME280;47850;50.274;18.908;2023-06-19T04:00:05;98048.98;;;15.03;83.63
61898;BME280;47850;50.274;18.908;2023-06-19T04:02:35;98053.04;;;15.13;83.08
61898;BME280;47850;50.274;18.908;2023-06-19T04:05:03;98054.27;;;15.25;82.89
61898;BME280;47850;50.274;18.908;2023-06-19T04:07:32;98057.63;;;15.34;82.63
61898;BME280;47850;50.274;18.908;2023-06-19T04:10:00;98062.14;;;15.38;82.67
61898;BME280;47850;50.274;18.908;2023-06-19T04:12:28;98063.77;;;15.41;82.82
61898;BME280;47850;50.274;18.908;2023-06-19T04:14:55;98062.01;;;15.45;82.97
61898;BME280;47850;50.274;18.908;2023-06-19T04:17:23;98063.55;;;15.51;83.04
61898;BME280;47850;50.274;18.908;2023-06-19T04:19:51;98060.86;;;15.57;82.86
61898;BME280;47850;50.274;18.908;2023-06-19T04:22:19;98061.69;;;15.61;82.56
61898;BME280;47850;50.274;18.908;2023-06-19T04:24:46;98060.20;;;15.68;82.24
61898;BME280;47850;50.274;18.908;2023-06-19T04:27:14;98064.16;;;15.73;82.17
61898;BME280;47850;50.274;18.908;2023-06-19T04:29:42;98063.92;;;15.80;82.00
61898;BME280;47850;50.274;18.908;2023-06-19T04:32:10;98058.86;;;15.88;81.73
61898;BME280;47850;50.274;18.908;2023-06-19T04:34:41;98060.30;;;15.95;81.57
61898;BME280;47850;50.274;18.908;2023-06-19T04:37:14;98058.27;;;16.03;80.86
61898;BME280;47850;50.274;18.908;2023-06-19T04:39:46;98059.13;;;16.09;80.47
61898;BME280;47850;50.274;18.908;2023-06-19T04:42:16;98059.67;;;16.17;80.44
61898;BME280;47850;50.274;18.908;2023-06-19T04:44:48;98058.19;;;16.24;80.31
61898;BME280;47850;50.274;18.908;2023-06-19T04:47:19;98062.09;;;16.30;80.21
61898;BME280;47850;50.274;18.908;2023-06-19T04:49:47;98063.38;;;16.35;79.87
61898;BME280;47850;50.274;18.908;2023-06-19T04:52:15;98067.31;;;16.39;79.90
61898;BME280;47850;50.274;18.908;2023-06-19T04:54:43;98072.92;;;16.44;79.61
61898;BME280;47850;50.274;18.908;2023-06-19T04:57:11;98069.91;;;16.47;79.19
61898;BME280;47850;50.274;18.908;2023-06-19T04:59:38;98070.27;;;16.52;79.18
61898;BME280;47850;50.274;18.908;2023-06-19T05:02:06;98070.60;;;16.57;79.35
61898;BME280;47850;50.274;18.908;2023-06-19T05:04:35;98069.73;;;16.61;79.05
61898;BME280;47850;50.274;18.908;2023-06-19T05:07:03;98069.33;;;16.65;78.73
61898;BME280;47850;50.274;18.908;2023-06-19T05:09:31;98073.62;;;16.70;78.13
61898;BME280;47850;50.274;18.908;2023-06-19T05:11:59;98073.16;;;16.75;77.78
61898;BME280;47850;50.274;18.908;2023-06-19T05:14:27;98073.73;;;16.81;77.55
61898;BME280;47850;50.274;18.908;2023-06-19T05:16:54;98077.48;;;16.87;77.17
61898;BME280;47850;50.274;18.908;2023-06-19T05:19:22;98075.83;;;16.94;76.41
61898;BME280;47850;50.274;18.908;2023-06-19T05:21:50;98076.85;;;17.01;76.07
61898;BME280;47850;50.274;18.908;2023-06-19T05:24:18;98078.19;;;17.10;75.77
61898;BME280;47850;50.274;18.908;2023-06-19T05:26:46;98079.14;;;17.20;75.63
61898;BME280;47850;50.274;18.908;2023-06-19T05:29:13;98080.02;;;17.30;75.74
61898;BME280;47850;50.274;18.908;2023-06-19T05:31:41;98078.97;;;17.36;75.71
61898;BME280;47850;50.274;18.908;2023-06-19T05:34:09;98078.54;;;17.43;75.52
61898;BME280;47850;50.274;18.908;2023-06-19T05:36:36;98079.05;;;17.50;75.29
61898;BME280;47850;50.274;18.908;2023-06-19T05:39:04;98077.62;;;17.59;75.34
61898;BME280;47850;50.274;18.908;2023-06-19T05:41:32;98082.72;;;17.67;74.76
61898;BME280;47850;50.274;18.908;2023-06-19T05:44:00;98085.90;;;17.75;74.32
61898;BME280;47850;50.274;18.908;2023-06-19T05:46:28;98090.69;;;17.83;74.13
61898;BME280;47850;50.274;18.908;2023-06-19T05:48:55;98093.98;;;17.92;73.84
61898;BME280;47850;50.274;18.908;2023-06-19T05:51:23;98097.92;;;18.00;72.83
61898;BME280;47850;50.274;18.908;2023-06-19T05:53:51;98100.48;;;18.08;71.94
61898;BME280;47850;50.274;18.908;2023-06-19T05:56:19;98099.31;;;18.14;71.62
61898;BME280;47850;50.274;18.908;2023-06-19T05:58:47;98099.81;;;18.22;71.17
61898;BME280;47850;50.274;18.908;2023-06-19T06:01:15;98103.06;;;18.29;70.77
61898;BME280;47850;50.274;18.908;2023-06-19T06:03:45;98107.10;;;18.35;69.71
61898;BME280;47850;50.274;18.908;2023-06-19T06:06:12;98104.86;;;18.38;68.55
61898;BME280;47850;50.274;18.908;2023-06-19T06:08:41;98107.34;;;18.46;68.28
61898;BME280;47850;50.274;18.908;2023-06-19T06:11:08;98108.07;;;18.54;68.24
61898;BME280;47850;50.274;18.908;2023-06-19T06:13:36;98105.55;;;18.62;67.98
61898;BME280;47850;50.274;18.908;2023-06-19T06:16:04;98105.58;;;18.69;67.88
61898;BME280;47850;50.274;18.908;2023-06-19T06:18:32;98101.70;;;18.76;67.65
61898;BME280;47850;50.274;18.908;2023-06-19T06:21:00;98103.23;;;18.85;67.63
61898;BME280;47850;50.274;18.908;2023-06-19T06:23:28;98107.10;;;18.94;67.56
61898;BME280;47850;50.274;18.908;2023-06-19T06:25:56;98109.98;;;19.05;67.47
61898;BME280;47850;50.274;18.908;2023-06-19T06:28:29;98111.95;;;19.12;66.17
61898;BME280;47850;50.274;18.908;2023-06-19T06:30:56;98111.02;;;19.20;65.77
61898;BME280;47850;50.274;18.908;2023-06-19T06:33:24;98112.84;;;19.29;65.60
61898;BME280;47850;50.274;18.908;2023-06-19T06:35:54;98113.16;;;19.38;65.28
61898;BME280;47850;50.274;18.908;2023-06-19T06:38:22;98114.11;;;19.46;65.45
61898;BME280;47850;50.274;18.908;2023-06-19T06:40:50;98115.45;;;19.54;65.32
61898;BME280;47850;50.274;18.908;2023-06-19T06:43:18;98116.95;;;19.63;64.63
61898;BME280;47850;50.274;18.908;2023-06-19T06:45:46;98117.34;;;19.70;63.94
61898;BME280;47850;50.274;18.908;2023-06-19T06:48:15;98121.83;;;19.77;63.47
61898;BME280;47850;50.274;18.908;2023-06-19T06:50:43;98119.63;;;19.86;63.21
61898;BME280;47850;50.274;18.908;2023-06-19T06:53:11;98119.28;;;19.92;62.68
61898;BME280;47850;50.274;18.908;2023-06-19T06:55:38;98125.11;;;19.98;62.43
61898;BME280;47850;50.274;18.908;2023-06-19T06:58:06;98131.16;;;20.04;62.07
61898;BME280;47850;50.274;18.908;2023-06-19T07:00:34;98138.20;;;20.15;62.29
61898;BME280;47850;50.274;18.908;2023-06-19T07:03:02;98139.92;;;20.22;61.89
61898;BME280;47850;50.274;18.908;2023-06-19T07:05:30;98143.61;;;20.30;60.98
61898;BME280;47850;50.274;18.908;2023-06-19T07:07:58;98145.07;;;20.37;60.76
61898;BME280;47850;50.274;18.908;2023-06-19T07:10:26;98150.58;;;20.44;60.21
61898;BME280;47850;50.274;18.908;2023-06-19T07:12:54;98150.77;;;20.49;59.14
61898;BME280;47850;50.274;18.908;2023-06-19T07:15:22;98148.98;;;20.55;58.39
61898;BME280;47850;50.274;18.908;2023-06-19T07:17:50;98151.64;;;20.63;58.61
61898;BME280;47850;50.274;18.908;2023-06-19T07:20:18;98149.47;;;20.70;58.21
61898;BME280;47850;50.274;18.908;2023-06-19T07:22:46;98147.55;;;20.77;58.00
61898;BME280;47850;50.274;18.908;2023-06-19T07:25:14;98144.89;;;20.84;58.00
61898;BME280;47850;50.274;18.908;2023-06-19T07:27:42;98152.45;;;20.91;57.53
61898;BME280;47850;50.274;18.908;2023-06-19T07:30:11;98154.06;;;20.99;57.58
61898;BME280;47850;50.274;18.908;2023-06-19T07:32:39;98151.48;;;21.07;57.26
61898;BME280;47850;50.274;18.908;2023-06-19T07:35:07;98149.85;;;21.16;56.63
61898;BME280;47850;50.274;18.908;2023-06-19T07:37:35;98148.84;;;21.25;56.16
61898;BME280;47850;50.274;18.908;2023-06-19T07:40:03;98153.87;;;21.36;56.34
61898;BME280;47850;50.274;18.908;2023-06-19T07:42:32;98151.35;;;21.44;55.92
61898;BME280;47850;50.274;18.908;2023-06-19T07:45:00;98149.86;;;21.53;55.21
61898;BME280;47850;50.274;18.908;2023-06-19T07:47:27;98153.47;;;21.59;54.25
61898;BME280;47850;50.274;18.908;2023-06-19T07:49:55;98159.27;;;21.64;54.08
61898;BME280;47850;50.274;18.908;2023-06-19T07:52:23;98160.61;;;21.70;54.02
61898;BME280;47850;50.274;18.908;2023-06-19T07:54:52;98157.29;;;21.76;53.96
61898;BME280;47850;50.274;18.908;2023-06-19T07:57:21;98154.77;;;21.80;53.17
61898;BME280;47850;50.274;18.908;2023-06-19T07:59:50;98150.95;;;21.85;52.91
61898;BME280;47850;50.274;18.908;2023-06-19T08:02:18;98150.88;;;21.92;53.11
61898;BME280;47850;50.274;18.908;2023-06-19T08:04:46;98158.19;;;22.01;52.97
61898;BME280;47850;50.274;18.908;2023-06-19T08:07:14;98150.48;;;22.11;53.16
61898;BME280;47850;50.274;18.908;2023-06-19T08:09:42;98150.64;;;22.23;52.95
61898;BME280;47850;50.274;18.908;2023-06-19T08:12:10;98152.29;;;22.33;52.32
61898;BME280;47850;50.274;18.908;2023-06-19T08:14:38;98148.41;;;22.41;52.39
61898;BME280;47850;50.274;18.908;2023-06-19T08:17:06;98148.64;;;22.50;51.92
61898;BME280;47850;50.274;18.908;2023-06-19T08:19:34;98145.92;;;22.58;51.51
61898;BME280;47850;50.274;18.908;2023-06-19T08:22:02;98148.92;;;22.65;50.40
61898;BME280;47850;50.274;18.908;2023-06-19T08:24:30;98145.90;;;22.69;50.03
61898;BME280;47850;50.274;18.908;2023-06-19T08:26:57;98147.13;;;22.75;49.28
61898;BME280;47850;50.274;18.908;2023-06-19T08:29:26;98148.73;;;22.76;48.64
61898;BME280;47850;50.274;18.908;2023-06-19T08:31:54;98151.43;;;22.74;48.66
61898;BME280;47850;50.274;18.908;2023-06-19T08:34:21;98152.84;;;22.81;47.98
61898;BME280;47850;50.274;18.908;2023-06-19T08:36:50;98147.58;;;22.88;48.05
61898;BME280;47850;50.274;18.908;2023-06-19T08:39:18;98144.77;;;22.98;47.63
61898;BME280;47850;50.274;18.908;2023-06-19T08:41:47;98142.70;;;23.10;47.14
61898;BME280;47850;50.274;18.908;2023-06-19T08:44:15;98144.45;;;23.20;46.40
61898;BME280;47850;50.274;18.908;2023-06-19T08:46:43;98143.77;;;23.30;45.80
61898;BME280;47850;50.274;18.908;2023-06-19T08:49:13;98142.60;;;23.39;45.56
61898;BME280;47850;50.274;18.908;2023-06-19T08:51:41;98143.64;;;23.51;45.76
61898;BME280;47850;50.274;18.908;2023-06-19T08:54:08;98145.04;;;23.67;45.88
61898;BME280;47850;50.274;18.908;2023-06-19T08:56:37;98142.94;;;23.85;45.63
61898;BME280;47850;50.274;18.908;2023-06-19T08:59:14;98143.10;;;24.07;45.34
61898;BME280;47850;50.274;18.908;2023-06-19T09:01:50;98143.84;;;24.31;44.04
61898;BME280;47850;50.274;18.908;2023-06-19T09:04:26;98143.98;;;24.49;42.54
61898;BME280;47850;50.274;18.908;2023-06-19T09:06:58;98141.32;;;24.59;41.82
61898;BME280;47850;50.274;18.908;2023-06-19T09:09:33;98137.55;;;24.71;41.55
61898;BME280;47850;50.274;18.908;2023-06-19T09:12:12;98140.58;;;24.79;41.20
61898;BME280;47850;50.274;18.908;2023-06-19T09:14:54;98134.89;;;24.88;39.98
61898;BME280;47850;50.274;18.908;2023-06-19T09:17:31;98137.13;;;24.94;40.49
61898;BME280;47850;50.274;18.908;2023-06-19T09:20:11;98135.91;;;24.96;39.49
61898;BME280;47850;50.274;18.908;2023-06-19T09:22:59;98135.86;;;24.93;39.33
61898;BME280;47850;50.274;18.908;2023-06-19T09:25:51;98138.75;;;24.91;39.54
61898;BME280;47850;50.274;18.908;2023-06-19T09:28:46;98135.55;;;24.99;39.94
61898;BME280;47850;50.274;18.908;2023-06-19T09:31:33;98137.54;;;25.06;39.22
61898;BME280;47850;50.274;18.908;2023-06-19T09:34:43;98138.48;;;25.07;38.36
61898;BME280;47850;50.274;18.908;2023-06-19T09:37:29;98141.27;;;25.20;38.37
61898;BME280;47850;50.274;18.908;2023-06-19T09:40:02;98137.02;;;25.28;38.30
61898;BME280;47850;50.274;18.908;2023-06-19T09:42:52;98138.04;;;25.48;38.33
61898;BME280;47850;50.274;18.908;2023-06-19T09:45:36;98131.39;;;25.77;38.35
61898;BME280;47850;50.274;18.908;2023-06-19T09:48:27;98130.18;;;26.02;37.88
61898;BME280;47850;50.274;18.908;2023-06-19T09:51:25;98133.84;;;26.23;37.52
61898;BME280;47850;50.274;18.908;2023-06-19T09:54:00;98130.48;;;26.37;36.73
61898;BME280;47850;50.274;18.908;2023-06-19T09:56:47;98126.52;;;26.44;36.36
61898;BME280;47850;50.274;18.908;2023-06-19T09:59:22;98125.65;;;26.52;36.41
61898;BME280;47850;50.274;18.908;2023-06-19T10:02:07;98121.43;;;26.59;36.74
61898;BME280;47850;50.274;18.908;2023-06-19T10:05:01;98121.80;;;26.65;37.21
61898;BME280;47850;50.274;18.908;2023-06-19T10:08:41;98121.86;;;26.62;37.26
61898;BME280;47850;50.274;18.908;2023-06-19T10:11:52;98123.02;;;26.56;37.44
61898;BME280;47850;50.274;18.908;2023-06-19T10:14:29;98124.41;;;26.49;37.34
61898;BME280;47850;50.274;18.908;2023-06-19T10:17:10;98125.04;;;26.37;37.54
61898;BME280;47850;50.274;18.908;2023-06-19T10:19:56;98124.92;;;26.31;37.66
61898;BME280;47850;50.274;18.908;2023-06-19T10:23:00;98122.88;;;26.46;37.13
61898;BME280;47850;50.274;18.908;2023-06-19T10:25:57;98123.05;;;26.67;36.64
61898;BME280;47850;50.274;18.908;2023-06-19T10:28:33;98116.16;;;26.78;37.37
61898;BME280;47850;50.274;18.908;2023-06-19T10:31:12;98116.50;;;26.84;36.87
61898;BME280;47850;50.274;18.908;2023-06-19T10:33:51;98119.40;;;26.91;36.31
61898;BME280;47850;50.274;18.908;2023-06-19T10:36:21;98115.27;;;26.85;36.00
61898;BME280;47850;50.274;18.908;2023-06-19T10:38:53;98111.25;;;26.70;36.00
61898;BME280;47850;50.274;18.908;2023-06-19T10:41:28;98112.56;;;26.77;37.23
61898;BME280;47850;50.274;18.908;2023-06-19T10:44:09;98109.10;;;26.98;36.90
61898;BME280;47850;50.274;18.908;2023-06-19T10:46:52;98108.67;;;27.04;35.73
61898;BME280;47850;50.274;18.908;2023-06-19T10:49:27;98110.95;;;26.94;35.58
61898;BME280;47850;50.274;18.908;2023-06-19T10:51:59;98108.37;;;27.03;35.38
61898;BME280;47850;50.274;18.908;2023-06-19T10:54:28;98108.84;;;27.07;34.98
61898;BME280;47850;50.274;18.908;2023-06-19T10:56:57;98107.15;;;27.22;35.10
61898;BME280;47850;50.274;18.908;2023-06-19T10:59:33;98107.13;;;27.38;35.09
61898;BME280;47850;50.274;18.908;2023-06-19T11:02:06;98110.87;;;27.64;34.93
61898;BME280;47850;50.274;18.908;2023-06-19T11:04:37;98106.66;;;27.76;34.37
61898;BME280;47850;50.274;18.908;2023-06-19T11:07:07;98107.65;;;27.75;34.05
61898;BME280;47850;50.274;18.908;2023-06-19T11:09:35;98111.33;;;27.65;34.02
61898;BME280;47850;50.274;18.908;2023-06-19T11:12:04;98108.34;;;27.49;33.75
61898;BME280;47850;50.274;18.908;2023-06-19T11:14:35;98111.83;;;27.42;34.32
61898;BME280;47850;50.274;18.908;2023-06-19T11:17:07;98110.11;;;27.62;34.17
61898;BME280;47850;50.274;18.908;2023-06-19T11:19:35;98108.56;;;27.83;33.80
61898;BME280;47850;50.274;18.908;2023-06-19T11:22:04;98108.12;;;28.12;32.40
61898;BME280;47850;50.274;18.908;2023-06-19T11:24:32;98111.61;;;28.35;30.74
61898;BME280;47850;50.274;18.908;2023-06-19T11:27:00;98111.06;;;28.40;31.01
61898;BME280;47850;50.274;18.908;2023-06-19T11:29:31;98108.89;;;28.71;30.93
61898;BME280;47850;50.274;18.908;2023-06-19T11:32:14;98099.20;;;29.04;31.00
61898;BME280;47850;50.274;18.908;2023-06-19T11:34:42;98100.38;;;29.45;30.47
61898;BME280;47850;50.274;18.908;2023-06-19T11:37:16;98102.77;;;29.76;29.82
61898;BME280;47850;50.274;18.908;2023-06-19T11:39:46;98099.28;;;30.02;29.40
61898;BME280;47850;50.274;18.908;2023-06-19T11:42:15;98098.58;;;30.21;28.03
61898;BME280;47850;50.274;18.908;2023-06-19T11:47:23;98099.65;;;30.53;28.28
61898;BME280;47850;50.274;18.908;2023-06-19T11:49:51;98099.77;;;30.72;28.11
61898;BME280;47850;50.274;18.908;2023-06-19T11:52:19;98098.14;;;30.92;27.81
61898;BME280;47850;50.274;18.908;2023-06-19T11:54:47;98096.52;;;31.11;27.86
61898;BME280;47850;50.274;18.908;2023-06-19T11:57:14;98092.33;;;31.23;27.60
61898;BME280;47850;50.274;18.908;2023-06-19T11:59:42;98083.68;;;31.38;26.83
61898;BME280;47850;50.274;18.908;2023-06-19T12:02:11;98083.86;;;31.65;26.84
61898;BME280;47850;50.274;18.908;2023-06-19T12:04:38;98084.28;;;31.92;26.83
61898;BME280;47850;50.274;18.908;2023-06-19T12:07:06;98086.61;;;32.00;26.26
61898;BME280;47850;50.274;18.908;2023-06-19T12:09:35;98088.76;;;32.14;25.81
61898;BME280;47850;50.274;18.908;2023-06-19T12:12:03;98081.98;;;32.37;25.76
61898;BME280;47850;50.274;18.908;2023-06-19T12:14:31;98086.21;;;32.53;24.65
61898;BME280;47850;50.274;18.908;2023-06-19T12:16:58;98082.55;;;32.41;24.73
61898;BME280;47850;50.274;18.908;2023-06-19T12:19:26;98079.02;;;32.19;24.32
61898;BME280;47850;50.274;18.908;2023-06-19T12:21:57;98084.54;;;32.34;24.99
61898;BME280;47850;50.274;18.908;2023-06-19T12:24:26;98074.20;;;32.58;24.72
61898;BME280;47850;50.274;18.908;2023-06-19T12:26:54;98075.19;;;32.85;24.44
61898;BME280;47850;50.274;18.908;2023-06-19T12:29:22;98080.15;;;32.99;23.87
61898;BME280;47850;50.274;18.908;2023-06-19T12:31:49;98077.33;;;32.95;23.95
61898;BME280;47850;50.274;18.908;2023-06-19T12:34:17;98076.00;;;32.79;24.26
61898;BME280;47850;50.274;18.908;2023-06-19T12:36:45;98071.07;;;32.66;24.57
61898;BME280;47850;50.274;18.908;2023-06-19T12:39:13;98073.23;;;32.71;25.07
61898;BME280;47850;50.274;18.908;2023-06-19T12:41:44;98074.81;;;32.88;24.62
61898;BME280;47850;50.274;18.908;2023-06-19T12:44:11;98070.21;;;33.12;24.68
61898;BME280;47850;50.274;18.908;2023-06-19T12:46:40;98069.31;;;33.32;23.42
61898;BME280;47850;50.274;18.908;2023-06-19T12:49:07;98067.47;;;33.40;22.73
61898;BME280;47850;50.274;18.908;2023-06-19T12:51:35;98070.38;;;33.47;22.94
61898;BME280;47850;50.274;18.908;2023-06-19T12:54:03;98069.55;;;33.51;22.80
61898;BME280;47850;50.274;18.908;2023-06-19T12:56:31;98060.55;;;33.60;22.88
61898;BME280;47850;50.274;18.908;2023-06-19T12:58:59;98062.73;;;33.93;22.90
61898;BME280;47850;50.274;18.908;2023-06-19T13:01:27;98064.73;;;34.21;22.60
61898;BME280;47850;50.274;18.908;2023-06-19T13:03:56;98067.04;;;34.37;22.15
61898;BME280;47850;50.274;18.908;2023-06-19T13:06:23;98065.34;;;34.54;21.33
61898;BME280;47850;50.274;18.908;2023-06-19T13:08:51;98066.00;;;34.51;20.62
61898;BME280;47850;50.274;18.908;2023-06-19T13:11:19;98060.98;;;34.49;20.38
61898;BME280;47850;50.274;18.908;2023-06-19T13:13:47;98063.83;;;34.37;20.62